createdAt,value
2022-12-27T00:00:14.234Z,11.15
2022-12-27T00:02:42.155Z,9.85
2022-12-27T00:05:10.247Z,10.00
2022-12-27T00:07:37.351Z,9.50
2022-12-27T00:10:05.645Z,10.60
2022-12-27T00:12:32.617Z,8.88
2022-12-27T00:14:59.335Z,7.68
2022-12-27T00:17:26.593Z,11.77
2022-12-27T00:19:53.353Z,8.93
2022-12-27T00:22:20.144Z,11.43
2022-12-27T00:24:47.824Z,10.43
2022-12-27T00:27:14.685Z,11.18
2022-12-27T00:29:41.446Z,12.43
2022-12-27T00:32:08.314Z,11.23
2022-12-27T00:34:35.287Z,13.40
2022-12-27T00:37:02.045Z,16.35
2022-12-27T00:39:28.878Z,14.95
2022-12-27T00:41:55.624Z,13.00
2022-12-27T00:44:22.409Z,16.17
2022-12-27T00:46:49.174Z,12.93
2022-12-27T00:49:15.951Z,9.10
2022-12-27T00:51:42.692Z,9.70
2022-12-27T00:54:09.496Z,10.55
2022-12-27T00:56:36.339Z,11.13
2022-12-27T00:59:04.997Z,6.75
2022-12-27T01:01:35.961Z,7.40
2022-12-27T01:04:03.693Z,10.13
2022-12-27T01:06:32.871Z,8.82
2022-12-27T01:09:01.396Z,13.30
2022-12-27T01:11:29.162Z,10.25
2022-12-27T01:14:01.224Z,11.05
2022-12-27T01:16:30.258Z,12.38
2022-12-27T01:18:57.263Z,11.35
2022-12-27T01:21:25.200Z,12.98
2022-12-27T01:23:52.458Z,12.25
2022-12-27T01:26:21.077Z,12.45
2022-12-27T01:28:48.635Z,10.48
2022-12-27T01:31:18.636Z,12.60
2022-12-27T01:33:45.918Z,13.35
2022-12-27T01:36:20.053Z,10.95
2022-12-27T01:38:50.546Z,12.25
2022-12-27T01:41:42.263Z,11.98
2022-12-27T01:44:52.262Z,7.82
2022-12-27T01:47:46.954Z,12.77
2022-12-27T01:50:31.737Z,8.18
2022-12-27T01:53:18.929Z,9.05
2022-12-27T01:55:54.686Z,11.88
2022-12-27T01:58:54.916Z,9.35
2022-12-27T02:01:26.813Z,8.18
2022-12-27T02:04:02.452Z,9.52
2022-12-27T02:06:31.254Z,10.57
2022-12-27T02:09:16.616Z,13.30
2022-12-27T02:11:55.210Z,10.50
2022-12-27T02:14:35.613Z,12.63
2022-12-27T02:17:06.666Z,12.77
2022-12-27T02:19:42.512Z,11.40
2022-12-27T02:22:27.501Z,12.20
2022-12-27T02:25:28.138Z,11.65
2022-12-27T02:28:15.042Z,14.80
2022-12-27T02:30:46.251Z,13.15
2022-12-27T02:33:21.679Z,12.35
2022-12-27T02:35:59.530Z,11.40
2022-12-27T02:38:37.623Z,13.90
2022-12-27T02:41:26.750Z,12.80
2022-12-27T02:44:13.999Z,13.00
2022-12-27T02:46:59.172Z,12.82
2022-12-27T02:49:53.478Z,14.00
2022-12-27T02:53:03.688Z,12.82
2022-12-27T02:56:08.981Z,12.88
2022-12-27T02:59:04.935Z,11.75
2022-12-27T03:01:52.975Z,10.40
2022-12-27T03:04:44.443Z,10.48
2022-12-27T03:07:20.045Z,13.68
2022-12-27T03:10:12.951Z,13.02
2022-12-27T03:13:13.151Z,13.80
2022-12-27T03:15:56.496Z,9.65
2022-12-27T03:18:32.412Z,12.80
2022-12-27T03:21:19.595Z,11.32
2022-12-27T03:24:07.991Z,12.43
2022-12-27T03:26:37.772Z,11.73
2022-12-27T03:29:25.205Z,14.60
2022-12-27T03:32:15.224Z,13.90
2022-12-27T03:34:49.540Z,12.90
2022-12-27T03:37:41.478Z,12.23
2022-12-27T03:40:13.213Z,15.15
2022-12-27T03:43:08.621Z,17.05
2022-12-27T03:46:16.284Z,12.52
2022-12-27T03:49:38.679Z,13.43
2022-12-27T03:52:08.032Z,11.80
2022-12-27T03:54:39.428Z,14.25
2022-12-27T03:57:10.324Z,11.55
2022-12-27T03:59:37.494Z,12.20
2022-12-27T04:02:05.049Z,11.23
2022-12-27T04:04:31.983Z,12.82
2022-12-27T04:06:58.830Z,12.75
2022-12-27T04:09:44.355Z,10.90
2022-12-27T04:12:30.121Z,10.10
2022-12-27T04:15:15.191Z,11.32
2022-12-27T04:18:00.894Z,13.63
2022-12-27T04:20:46.068Z,12.70
2022-12-27T04:23:31.311Z,11.05
2022-12-27T04:26:16.616Z,12.55
2022-12-27T04:29:01.739Z,13.25
2022-12-27T04:31:46.843Z,11.98
2022-12-27T04:34:32.147Z,12.63
2022-12-27T04:36:58.950Z,12.13
2022-12-27T04:39:25.667Z,12.38
2022-12-27T04:42:10.942Z,12.43
2022-12-27T04:44:56.169Z,12.13
2022-12-27T04:47:42.131Z,13.20
2022-12-27T04:50:47.996Z,14.00
2022-12-27T04:53:39.322Z,14.93
2022-12-27T04:56:06.812Z,16.85
2022-12-27T04:58:33.675Z,13.75
2022-12-27T05:01:22.406Z,14.85
2022-12-27T05:03:51.986Z,16.58
2022-12-27T05:06:19.258Z,18.90
2022-12-27T05:09:04.788Z,16.30
2022-12-27T05:11:49.999Z,17.58
2022-12-27T05:14:16.819Z,17.52
2022-12-27T05:16:44.744Z,19.23
2022-12-27T05:19:13.463Z,22.60
2022-12-27T05:22:05.074Z,17.70
2022-12-27T05:24:51.593Z,22.20
2022-12-27T05:27:18.397Z,20.27
2022-12-27T05:29:45.992Z,18.30
2022-12-27T05:32:13.833Z,17.23
2022-12-27T05:34:41.136Z,16.20
2022-12-27T05:37:08.428Z,18.63
2022-12-27T05:39:35.131Z,17.77
2022-12-27T05:42:02.123Z,18.08
2022-12-27T05:44:29.038Z,16.95
2022-12-27T05:46:56.244Z,16.67
2022-12-27T05:49:23.263Z,18.55
2022-12-27T05:51:50.037Z,19.50
2022-12-27T05:54:16.891Z,20.00
2022-12-27T05:56:43.658Z,17.08
2022-12-27T05:59:10.426Z,16.67
2022-12-27T06:01:37.276Z,18.42
2022-12-27T06:04:04.147Z,16.40
2022-12-27T06:06:30.944Z,19.00
2022-12-27T06:08:57.728Z,18.02
2022-12-27T06:11:24.565Z,17.27
2022-12-27T06:13:53.610Z,18.55
2022-12-27T06:16:22.355Z,17.35
2022-12-27T06:18:49.461Z,18.30
2022-12-27T06:21:21.301Z,18.63
2022-12-27T06:23:48.883Z,18.58
2022-12-27T06:26:21.751Z,17.02
2022-12-27T06:28:49.825Z,18.27
2022-12-27T06:31:20.348Z,17.92
2022-12-27T06:33:51.415Z,18.45
2022-12-27T06:36:23.729Z,18.48
2022-12-27T06:38:50.750Z,21.35
2022-12-27T06:41:19.161Z,18.65
2022-12-27T06:43:46.765Z,17.45
2022-12-27T06:46:17.825Z,17.15
2022-12-27T06:48:45.781Z,20.38
2022-12-27T06:51:14.283Z,17.60
2022-12-27T06:53:41.055Z,17.80
2022-12-27T06:56:16.679Z,16.55
2022-12-27T06:58:43.608Z,16.33
2022-12-27T07:01:16.310Z,18.02
2022-12-27T07:03:43.422Z,15.73
2022-12-27T07:06:11.812Z,16.67
2022-12-27T07:08:38.639Z,17.52
2022-12-27T07:11:10.911Z,16.23
2022-12-27T07:13:41.080Z,17.58
2022-12-27T07:16:09.509Z,16.63
2022-12-27T07:18:37.298Z,17.23
2022-12-27T07:21:09.130Z,16.38
2022-12-27T07:23:36.786Z,17.45
2022-12-27T07:26:05.308Z,19.52
2022-12-27T07:28:32.582Z,22.00
2022-12-27T07:30:59.746Z,17.75
2022-12-27T07:33:26.752Z,19.00
2022-12-27T07:36:01.350Z,17.13
2022-12-27T07:38:28.345Z,17.42
2022-12-27T07:40:58.147Z,18.38
2022-12-27T07:43:24.888Z,18.98
2022-12-27T07:45:51.674Z,18.70
2022-12-27T07:48:18.714Z,18.90
2022-12-27T07:50:54.605Z,19.55
2022-12-27T07:53:21.569Z,17.08
2022-12-27T07:55:48.822Z,18.35
2022-12-27T07:58:15.614Z,19.27
2022-12-27T08:00:42.514Z,16.92
2022-12-27T08:03:09.344Z,20.35
2022-12-27T08:05:36.124Z,18.33
2022-12-27T08:08:05.232Z,17.70
2022-12-27T08:10:33.972Z,18.20
2022-12-27T08:13:00.689Z,17.92
2022-12-27T08:15:27.448Z,18.85
2022-12-27T08:17:54.194Z,21.52
2022-12-27T08:20:20.987Z,16.90
2022-12-27T08:22:47.750Z,16.60
2022-12-27T08:25:14.484Z,16.95
2022-12-27T08:27:41.219Z,18.65
2022-12-27T08:30:08.706Z,20.88
2022-12-27T08:32:35.492Z,16.67
2022-12-27T08:35:25.027Z,18.05
2022-12-27T08:37:48.946Z,20.77
2022-12-27T08:40:15.713Z,17.30
2022-12-27T08:42:42.401Z,18.17
2022-12-27T08:45:09.677Z,18.25
2022-12-27T08:47:37.610Z,16.95
2022-12-27T08:50:05.195Z,18.58
2022-12-27T08:52:32.513Z,17.45
2022-12-27T08:54:59.223Z,17.65
2022-12-27T08:57:25.953Z,15.85
2022-12-27T08:59:52.755Z,18.00
2022-12-27T09:02:19.682Z,18.05
2022-12-27T09:04:47.333Z,18.30
2022-12-27T09:07:14.257Z,17.77
2022-12-27T09:09:40.982Z,16.35
2022-12-27T09:12:09.441Z,19.17
2022-12-27T09:14:36.315Z,18.02
2022-12-27T09:17:03.129Z,19.27
2022-12-27T09:19:29.852Z,16.70
2022-12-27T09:21:56.538Z,16.80
2022-12-27T09:24:23.341Z,18.05
2022-12-27T09:26:50.139Z,18.60
2022-12-27T09:29:17.144Z,18.15
2022-12-27T09:31:43.929Z,17.13
2022-12-27T09:34:11.453Z,20.80
2022-12-27T09:36:39.534Z,17.48
2022-12-27T09:39:06.658Z,18.15
2022-12-27T09:44:56.783Z,16.92
2022-12-27T09:47:47.997Z,18.60
2022-12-27T09:50:38.043Z,20.57
2022-12-27T09:53:18.830Z,20.05
2022-12-27T09:55:53.085Z,17.75
2022-12-27T09:58:34.986Z,21.23
2022-12-27T10:03:30.682Z,20.60
2022-12-27T10:06:22.942Z,20.63
2022-12-27T10:08:58.485Z,20.85
2022-12-27T10:12:03.740Z,20.77
2022-12-27T10:14:59.810Z,21.25
2022-12-27T10:17:38.922Z,18.67
2022-12-27T10:20:15.706Z,19.98
2022-12-27T10:22:45.195Z,22.33
2022-12-27T10:25:14.317Z,20.20
2022-12-27T10:27:42.220Z,18.88
2022-12-27T10:30:20.590Z,19.52
2022-12-27T10:32:47.975Z,24.60
2022-12-27T10:35:17.447Z,22.30
2022-12-27T10:37:45.398Z,22.00
2022-12-27T10:40:21.044Z,20.48
2022-12-27T10:43:11.074Z,21.58
2022-12-27T10:45:42.821Z,21.10
2022-12-27T10:48:17.050Z,20.35
2022-12-27T10:50:50.796Z,21.42
2022-12-27T10:53:43.018Z,21.27
2022-12-27T10:56:28.418Z,18.10
2022-12-27T10:59:17.349Z,20.08
2022-12-27T11:01:46.266Z,19.70
2022-12-27T11:04:21.524Z,20.15
2022-12-27T11:07:12.554Z,19.08
2022-12-27T11:09:50.268Z,22.63
2022-12-27T11:12:26.134Z,22.25
2022-12-27T11:15:02.516Z,21.05
2022-12-27T11:17:42.323Z,20.20
2022-12-27T11:20:12.404Z,19.92
2022-12-27T11:22:57.926Z,18.45
2022-12-27T11:25:26.942Z,19.13
2022-12-27T11:27:59.549Z,20.50
2022-12-27T11:30:31.739Z,22.35
2022-12-27T11:33:04.113Z,20.33
2022-12-27T11:35:33.923Z,20.90
2022-12-27T11:38:00.818Z,21.65
2022-12-27T11:40:34.549Z,21.00
2022-12-27T11:43:09.475Z,20.05
2022-12-27T11:45:43.439Z,21.48
2022-12-27T11:48:31.126Z,18.50
2022-12-27T11:51:20.166Z,21.77
2022-12-27T11:54:24.216Z,19.30
2022-12-27T11:56:59.871Z,22.02
2022-12-27T12:00:17.531Z,24.90
2022-12-27T12:03:27.484Z,21.50
2022-12-27T12:06:00.032Z,19.42
2022-12-27T12:09:07.630Z,19.80
2022-12-27T12:12:03.592Z,20.98
2022-12-27T12:15:07.742Z,22.40
2022-12-27T12:18:01.940Z,22.10
2022-12-27T12:21:00.147Z,20.48
2022-12-27T12:23:47.143Z,19.80
2022-12-27T12:26:18.100Z,20.48
2022-12-27T12:29:11.159Z,22.65
2022-12-27T12:32:06.916Z,20.40
2022-12-27T12:35:07.088Z,21.30
2022-12-27T12:37:45.563Z,23.73
2022-12-27T12:40:40.124Z,21.90
2022-12-27T12:43:55.587Z,20.23
2022-12-27T12:46:42.438Z,21.67
2022-12-27T12:49:28.181Z,21.50
2022-12-27T12:52:19.549Z,22.88
2022-12-27T12:55:14.262Z,20.90
2022-12-27T12:57:59.868Z,22.20
2022-12-27T13:00:51.089Z,23.95
2022-12-27T13:03:17.915Z,21.75
2022-12-27T13:06:07.594Z,20.88
2022-12-27T13:08:54.728Z,22.40
2022-12-27T13:11:46.586Z,20.38
2022-12-27T13:14:16.208Z,21.33
2022-12-27T13:17:08.214Z,21.55
2022-12-27T13:19:47.241Z,21.75
2022-12-27T13:22:30.252Z,21.65
2022-12-27T13:25:27.855Z,22.92
2022-12-27T13:28:15.931Z,22.83
2022-12-27T13:31:08.684Z,21.38
2022-12-27T13:34:12.672Z,22.98
2022-12-27T13:36:42.012Z,25.35
2022-12-27T13:39:36.618Z,22.52
2022-12-27T13:42:15.396Z,22.23
2022-12-27T13:44:57.924Z,23.30
2022-12-27T13:48:01.738Z,20.20
2022-12-27T13:50:52.370Z,23.70
2022-12-27T13:53:52.615Z,25.20
2022-12-27T13:56:53.928Z,25.48
2022-12-27T14:00:01.230Z,25.90
2022-12-27T14:02:46.304Z,24.92
2022-12-27T14:05:37.714Z,24.05
2022-12-27T14:08:19.036Z,23.83
2022-12-27T14:10:55.303Z,23.65
2022-12-27T14:13:36.517Z,24.05
2022-12-27T14:16:36.956Z,23.75
2022-12-27T14:19:25.223Z,26.13
2022-12-27T14:22:10.662Z,26.95
2022-12-27T14:25:11.723Z,25.38
2022-12-27T14:28:17.040Z,25.20
2022-12-27T14:31:14.955Z,23.65
2022-12-27T14:34:19.453Z,24.50
2022-12-27T14:37:23.519Z,25.45
2022-12-27T14:40:18.171Z,24.20
2022-12-27T14:43:22.968Z,24.38
2022-12-27T14:46:30.293Z,24.35
2022-12-27T14:49:35.706Z,22.65
2022-12-27T14:52:14.403Z,26.65
2022-12-27T14:55:18.132Z,24.67
2022-12-27T14:58:17.347Z,27.23
2022-12-27T15:01:08.476Z,24.85
2022-12-27T15:04:00.197Z,27.07
2022-12-27T15:07:15.638Z,26.38
2022-12-27T15:09:55.363Z,24.17
2022-12-27T15:12:27.930Z,24.38
2022-12-27T15:14:55.221Z,25.92
2022-12-27T15:17:39.752Z,25.92
2022-12-27T15:20:12.928Z,26.70
2022-12-27T15:22:51.653Z,25.25
2022-12-27T15:25:28.711Z,25.00
2022-12-27T15:28:14.193Z,25.50
2022-12-27T15:30:59.658Z,26.00
2022-12-27T15:33:34.074Z,24.38
2022-12-27T15:36:07.711Z,26.85
2022-12-27T15:39:01.134Z,26.80
2022-12-27T15:41:56.019Z,28.08
2022-12-27T15:44:40.308Z,27.80
2022-12-27T15:47:15.071Z,27.23
2022-12-27T15:50:07.776Z,30.20
2022-12-27T15:52:46.918Z,29.05
2022-12-27T15:55:35.553Z,28.77
2022-12-27T15:58:24.057Z,26.92
2022-12-27T16:01:29.173Z,31.27
2022-12-27T16:03:58.486Z,30.55
2022-12-27T16:06:34.607Z,29.63
2022-12-27T16:09:28.268Z,27.00
2022-12-27T16:12:07.307Z,28.05
2022-12-27T16:14:41.075Z,27.15
2022-12-27T16:17:23.168Z,26.27
2022-12-27T16:23:02.703Z,25.58
2022-12-27T16:25:41.209Z,29.25
2022-12-27T16:28:24.695Z,28.38
2022-12-27T16:30:54.119Z,25.73
2022-12-27T16:33:26.801Z,26.23
2022-12-27T16:36:02.773Z,25.20
2022-12-27T16:38:30.948Z,28.83
2022-12-27T16:41:24.826Z,28.20
2022-12-27T16:44:00.569Z,27.67
2022-12-27T16:46:30.036Z,25.90
2022-12-27T16:49:18.391Z,26.50
2022-12-27T16:52:07.241Z,27.63
2022-12-27T16:55:00.058Z,29.52
2022-12-27T16:57:26.736Z,28.10
2022-12-27T17:00:02.042Z,29.25
2022-12-27T17:02:37.321Z,29.50
2022-12-27T17:05:14.549Z,26.98
2022-12-27T17:08:08.405Z,30.23
2022-12-27T17:10:44.664Z,28.38
2022-12-27T17:13:39.133Z,32.13
2022-12-27T17:16:07.667Z,27.42
2022-12-27T17:18:58.052Z,34.17
2022-12-27T17:21:39.482Z,30.48
2022-12-27T17:24:15.298Z,27.50
2022-12-27T17:27:10.164Z,30.55
2022-12-27T17:29:42.942Z,28.08
2022-12-27T17:32:19.644Z,28.08
2022-12-27T17:35:01.221Z,27.02
2022-12-27T17:37:37.890Z,26.58
2022-12-27T17:40:32.516Z,28.15
2022-12-27T17:43:39.703Z,27.10
2022-12-27T17:46:30.850Z,27.17
2022-12-27T17:48:58.263Z,27.30
2022-12-27T17:51:28.455Z,29.95
2022-12-27T17:54:14.860Z,27.88
2022-12-27T17:57:04.321Z,27.52
2022-12-27T17:59:33.007Z,27.20
2022-12-27T18:02:06.972Z,27.88
2022-12-27T18:04:47.100Z,26.30
2022-12-27T18:07:15.469Z,27.88
2022-12-27T18:09:53.885Z,29.50
2022-12-27T18:12:24.513Z,29.80
2022-12-27T18:15:19.376Z,31.20
2022-12-27T18:18:01.580Z,26.48
2022-12-27T18:20:29.742Z,25.98
2022-12-27T18:23:02.551Z,27.65
2022-12-27T18:25:44.653Z,26.33
2022-12-27T18:30:43.175Z,28.67
2022-12-27T18:33:16.413Z,30.55
2022-12-27T18:35:47.991Z,30.13
2022-12-27T18:38:30.084Z,29.17
2022-12-27T18:43:35.632Z,26.05
2022-12-27T18:46:04.259Z,26.33
2022-12-27T18:48:35.557Z,28.80
2022-12-27T18:51:03.151Z,28.88
2022-12-27T18:53:38.772Z,25.52
2022-12-27T18:56:15.788Z,30.42
2022-12-27T18:59:06.119Z,28.52
2022-12-27T19:01:44.094Z,29.17
2022-12-27T19:04:17.261Z,26.55
2022-12-27T19:07:09.578Z,29.70
2022-12-27T19:09:39.365Z,26.90
2022-12-27T19:12:29.803Z,25.67
2022-12-27T19:14:57.293Z,25.65
2022-12-27T19:17:29.784Z,25.38
2022-12-27T19:20:02.960Z,26.48
2022-12-27T19:22:31.599Z,24.33
2022-12-27T19:25:00.335Z,24.30
2022-12-27T19:27:27.111Z,26.90
2022-12-27T19:29:53.900Z,25.40
2022-12-27T19:32:40.643Z,25.55
2022-12-27T19:35:08.639Z,23.63
2022-12-27T19:37:35.760Z,24.73
2022-12-27T19:40:02.988Z,23.85
2022-12-27T19:42:34.841Z,23.58
2022-12-27T19:45:01.854Z,26.70
2022-12-27T19:47:28.924Z,23.73
2022-12-27T19:49:55.723Z,22.48
2022-12-27T19:52:26.058Z,26.05
2022-12-27T19:55:04.679Z,22.17
2022-12-27T19:57:31.457Z,23.40
2022-12-27T19:59:58.286Z,23.48
2022-12-27T20:02:25.409Z,24.00
2022-12-27T20:04:52.488Z,29.10
2022-12-27T20:07:25.466Z,24.70
2022-12-27T20:09:52.402Z,22.85
2022-12-27T20:12:19.224Z,22.75
2022-12-27T20:14:47.392Z,27.25
2022-12-27T20:17:14.497Z,23.92
2022-12-27T20:19:41.380Z,23.67
2022-12-27T20:22:10.938Z,21.38
2022-12-27T20:24:37.998Z,24.27
2022-12-27T20:27:05.728Z,24.38
2022-12-27T20:29:32.605Z,28.75
2022-12-27T20:31:59.573Z,21.52
2022-12-27T20:34:26.471Z,22.80
2022-12-27T20:36:55.447Z,22.63
2022-12-27T20:39:22.299Z,22.25
2022-12-27T20:41:49.108Z,21.65
2022-12-27T20:44:16.005Z,22.55
2022-12-27T20:46:42.809Z,21.13
2022-12-27T20:49:09.512Z,22.63
2022-12-27T20:51:37.254Z,21.77
2022-12-27T20:54:04.328Z,20.23
2022-12-27T20:56:31.260Z,20.95
2022-12-27T20:58:58.075Z,21.95
2022-12-27T21:01:26.058Z,21.85
2022-12-27T21:03:55.990Z,22.55
2022-12-27T21:06:28.428Z,22.85
2022-12-27T21:08:57.687Z,22.35
2022-12-27T21:11:33.721Z,20.55
2022-12-27T21:14:02.506Z,21.23
2022-12-27T21:16:31.511Z,21.00
2022-12-27T21:19:02.755Z,19.55
2022-12-27T21:21:29.578Z,24.58
2022-12-27T21:23:58.188Z,19.73
2022-12-27T21:26:27.846Z,19.17
2022-12-27T21:28:55.518Z,21.08
2022-12-27T21:31:22.873Z,20.63
2022-12-27T21:33:49.764Z,21.13
2022-12-27T21:36:20.396Z,19.48
2022-12-27T21:38:47.733Z,21.92
2022-12-27T21:41:20.410Z,21.48
2022-12-27T21:43:49.190Z,20.70
2022-12-27T21:46:19.970Z,21.38
2022-12-27T21:48:47.600Z,23.38
2022-12-27T21:51:18.654Z,22.50
2022-12-27T21:53:45.806Z,19.07
2022-12-27T21:56:15.456Z,20.50
2022-12-27T21:58:43.050Z,21.42
2022-12-27T22:01:24.778Z,18.55
2022-12-27T22:03:53.463Z,20.48
2022-12-27T22:06:26.174Z,21.70
2022-12-27T22:08:59.547Z,25.23
2022-12-27T22:11:28.061Z,19.67
2022-12-27T22:13:55.421Z,20.35
2022-12-27T22:16:24.911Z,19.05
2022-12-27T22:18:52.196Z,18.50
2022-12-27T22:21:21.368Z,18.90
2022-12-27T22:23:50.417Z,20.15
2022-12-27T22:26:22.912Z,20.52
2022-12-27T22:28:49.904Z,19.67
2022-12-27T22:31:22.292Z,19.73
2022-12-27T22:33:50.029Z,17.35
2022-12-27T22:36:22.470Z,18.15
2022-12-27T22:38:53.638Z,19.98
2022-12-27T22:41:31.979Z,23.27
2022-12-27T22:44:04.774Z,19.13
2022-12-27T22:46:58.756Z,22.63
2022-12-27T22:49:19.253Z,18.30
2022-12-27T22:51:45.994Z,18.48
2022-12-27T22:54:12.723Z,17.92
2022-12-27T22:56:41.962Z,16.25
2022-12-27T22:59:13.605Z,18.50
2022-12-27T23:01:41.520Z,16.85
2022-12-27T23:04:11.122Z,18.95
2022-12-27T23:06:39.689Z,17.25
2022-12-27T23:09:06.630Z,17.42
2022-12-27T23:11:36.520Z,17.40
2022-12-27T23:14:06.640Z,17.95
2022-12-27T23:16:37.671Z,17.45
2022-12-27T23:19:04.922Z,16.73
2022-12-27T23:21:31.925Z,19.05
2022-12-27T23:23:58.678Z,16.40
2022-12-27T23:26:25.481Z,15.13
2022-12-27T23:28:53.047Z,15.60
2022-12-27T23:31:22.287Z,14.48
2022-12-27T23:33:49.676Z,16.95
2022-12-27T23:36:16.745Z,15.95
2022-12-27T23:38:44.331Z,16.02
2022-12-27T23:41:19.242Z,14.10
2022-12-27T23:43:55.383Z,17.55
2022-12-27T23:46:26.623Z,15.43
2022-12-27T23:48:54.064Z,15.80
2022-12-27T23:51:21.875Z,16.88
2022-12-27T23:53:49.093Z,14.10
2022-12-27T23:56:18.735Z,16.73
2022-12-27T23:58:46.797Z,14.10
